sensor_id;sensor_type;location;lat;lon;timestamp;P1;durP1;ratioP1;P2;durP2;ratioP2
2698;SDS011;1359;51.798;12.174;2023-03-16T00:00:10;4.50;;;2.97;;
2698;SDS011;1359;51.798;12.174;2023-03-16T00:02:41;4.63;;;3.47;;
2698;SDS011;1359;51.798;12.174;2023-03-16T00:05:07;4.53;;;3.13;;
2698;SDS011;1359;51.798;12.174;2023-03-16T00:07:33;4.60;;;3.10;;
2698;SDS011;1359;51.798;12.174;2023-03-16T00:09:58;5.83;;;3.40;;
2698;SDS011;1359;51.798;12.174;2023-03-16T00:12:23;3.63;;;3.30;;
2698;SDS011;1359;51.798;12.174;2023-03-16T00:14:50;15.23;;;4.13;;
2698;SDS011;1359;51.798;12.174;2023-03-16T00:17:17;12.97;;;3.50;;
2698;SDS011;1359;51.798;12.174;2023-03-16T00:19:46;4.87;;;3.60;;
2698;SDS011;1359;51.798;12.174;2023-03-16T00:22:13;3.87;;;3.40;;
2698;SDS011;1359;51.798;12.174;2023-03-16T00:24:39;8.33;;;4.20;;
2698;SDS011;1359;51.798;12.174;2023-03-16T00:27:08;5.97;;;4.00;;
2698;SDS011;1359;51.798;12.174;2023-03-16T00:29:33;3.90;;;3.33;;
2698;SDS011;1359;51.798;12.174;2023-03-16T00:31:58;5.37;;;3.40;;
2698;SDS011;1359;51.798;12.174;2023-03-16T00:34:24;3.70;;;2.90;;
2698;SDS011;1359;51.798;12.174;2023-03-16T00:36:49;8.93;;;2.83;;
2698;SDS011;1359;51.798;12.174;2023-03-16T00:39:15;6.07;;;3.20;;
2698;SDS011;1359;51.798;12.174;2023-03-16T00:41:40;7.07;;;3.80;;
2698;SDS011;1359;51.798;12.174;2023-03-16T00:44:07;5.83;;;3.30;;
2698;SDS011;1359;51.798;12.174;2023-03-16T00:46:34;5.90;;;3.57;;
2698;SDS011;1359;51.798;12.174;2023-03-16T00:49:00;5.53;;;3.90;;
2698;SDS011;1359;51.798;12.174;2023-03-16T00:51:27;4.20;;;3.60;;
2698;SDS011;1359;51.798;12.174;2023-03-16T00:53:52;6.17;;;3.53;;
2698;SDS011;1359;51.798;12.174;2023-03-16T00:56:17;6.23;;;3.87;;
2698;SDS011;1359;51.798;12.174;2023-03-16T00:58:43;4.10;;;3.13;;
2698;SDS011;1359;51.798;12.174;2023-03-16T01:01:11;6.67;;;3.20;;
2698;SDS011;1359;51.798;12.174;2023-03-16T01:03:37;12.13;;;4.50;;
2698;SDS011;1359;51.798;12.174;2023-03-16T01:06:05;5.97;;;3.30;;
2698;SDS011;1359;51.798;12.174;2023-03-16T01:08:30;6.70;;;3.27;;
2698;SDS011;1359;51.798;12.174;2023-03-16T01:11:01;5.13;;;3.50;;
2698;SDS011;1359;51.798;12.174;2023-03-16T01:13:27;4.80;;;3.10;;
2698;SDS011;1359;51.798;12.174;2023-03-16T01:15:53;3.80;;;2.90;;
2698;SDS011;1359;51.798;12.174;2023-03-16T01:18:18;4.87;;;3.40;;
2698;SDS011;1359;51.798;12.174;2023-03-16T01:20:44;4.40;;;3.30;;
2698;SDS011;1359;51.798;12.174;2023-03-16T01:23:15;4.50;;;3.53;;
2698;SDS011;1359;51.798;12.174;2023-03-16T01:25:41;5.07;;;3.37;;
2698;SDS011;1359;51.798;12.174;2023-03-16T01:28:07;6.50;;;4.40;;
2698;SDS011;1359;51.798;12.174;2023-03-16T01:30:33;5.20;;;3.70;;
2698;SDS011;1359;51.798;12.174;2023-03-16T01:32:59;4.40;;;3.00;;
2698;SDS011;1359;51.798;12.174;2023-03-16T01:35:25;8.43;;;5.10;;
2698;SDS011;1359;51.798;12.174;2023-03-16T01:37:50;5.87;;;3.47;;
2698;SDS011;1359;51.798;12.174;2023-03-16T01:40:20;5.70;;;5.10;;
2698;SDS011;1359;51.798;12.174;2023-03-16T01:42:47;5.07;;;3.40;;
2698;SDS011;1359;51.798;12.174;2023-03-16T01:47:57;4.43;;;3.73;;
2698;SDS011;1359;51.798;12.174;2023-03-16T01:50:23;5.13;;;3.43;;
2698;SDS011;1359;51.798;12.174;2023-03-16T01:52:49;4.57;;;3.47;;
2698;SDS011;1359;51.798;12.174;2023-03-16T01:55:14;7.90;;;4.33;;
2698;SDS011;1359;51.798;12.174;2023-03-16T01:57:40;5.40;;;4.37;;
2698;SDS011;1359;51.798;12.174;2023-03-16T02:00:12;4.53;;;4.07;;
2698;SDS011;1359;51.798;12.174;2023-03-16T02:02:59;4.33;;;3.00;;
2698;SDS011;1359;51.798;12.174;2023-03-16T02:05:42;3.80;;;3.40;;
2698;SDS011;1359;51.798;12.174;2023-03-16T02:08:11;5.30;;;3.80;;
2698;SDS011;1359;51.798;12.174;2023-03-16T02:10:38;7.60;;;3.50;;
2698;SDS011;1359;51.798;12.174;2023-03-16T02:13:04;8.00;;;4.10;;
2698;SDS011;1359;51.798;12.174;2023-03-16T02:15:30;4.07;;;2.70;;
2698;SDS011;1359;51.798;12.174;2023-03-16T02:17:55;6.03;;;3.20;;
2698;SDS011;1359;51.798;12.174;2023-03-16T02:22:51;4.60;;;3.70;;
2698;SDS011;1359;51.798;12.174;2023-03-16T02:25:21;7.13;;;3.30;;
2698;SDS011;1359;51.798;12.174;2023-03-16T02:27:50;5.50;;;3.23;;
2698;SDS011;1359;51.798;12.174;2023-03-16T02:30:19;3.87;;;2.90;;
2698;SDS011;1359;51.798;12.174;2023-03-16T02:32:55;6.90;;;3.37;;
2698;SDS011;1359;51.798;12.174;2023-03-16T02:35:21;5.70;;;3.00;;
2698;SDS011;1359;51.798;12.174;2023-03-16T02:37:47;8.47;;;3.57;;
2698;SDS011;1359;51.798;12.174;2023-03-16T02:40:27;5.40;;;3.23;;
2698;SDS011;1359;51.798;12.174;2023-03-16T02:43:05;6.13;;;4.27;;
2698;SDS011;1359;51.798;12.174;2023-03-16T02:45:36;4.37;;;3.70;;
2698;SDS011;1359;51.798;12.174;2023-03-16T02:48:04;2.80;;;2.47;;
2698;SDS011;1359;51.798;12.174;2023-03-16T02:50:31;5.33;;;4.20;;
2698;SDS011;1359;51.798;12.174;2023-03-16T02:52:56;6.97;;;3.40;;
2698;SDS011;1359;51.798;12.174;2023-03-16T02:55:21;3.83;;;3.50;;
2698;SDS011;1359;51.798;12.174;2023-03-16T02:57:47;4.00;;;3.07;;
2698;SDS011;1359;51.798;12.174;2023-03-16T03:00:14;2.70;;;2.50;;
2698;SDS011;1359;51.798;12.174;2023-03-16T03:02:44;5.70;;;3.40;;
2698;SDS011;1359;51.798;12.174;2023-03-16T03:05:11;6.20;;;2.80;;
2698;SDS011;1359;51.798;12.174;2023-03-16T03:07:36;5.33;;;3.93;;
2698;SDS011;1359;51.798;12.174;2023-03-16T03:10:05;4.33;;;3.43;;
2698;SDS011;1359;51.798;12.174;2023-03-16T03:12:31;7.50;;;3.47;;
2698;SDS011;1359;51.798;12.174;2023-03-16T03:14:57;5.03;;;4.03;;
2698;SDS011;1359;51.798;12.174;2023-03-16T03:17:23;8.63;;;3.13;;
2698;SDS011;1359;51.798;12.174;2023-03-16T03:19:57;4.03;;;3.30;;
2698;SDS011;1359;51.798;12.174;2023-03-16T03:22:23;4.20;;;3.80;;
2698;SDS011;1359;51.798;12.174;2023-03-16T03:24:50;5.07;;;3.30;;
2698;SDS011;1359;51.798;12.174;2023-03-16T03:27:15;4.03;;;3.63;;
2698;SDS011;1359;51.798;12.174;2023-03-16T03:29:41;9.67;;;4.23;;
2698;SDS011;1359;51.798;12.174;2023-03-16T03:32:06;9.50;;;3.73;;
2698;SDS011;1359;51.798;12.174;2023-03-16T03:34:32;4.47;;;4.07;;
2698;SDS011;1359;51.798;12.174;2023-03-16T03:36:57;5.67;;;4.30;;
2698;SDS011;1359;51.798;12.174;2023-03-16T03:39:23;8.60;;;4.20;;
2698;SDS011;1359;51.798;12.174;2023-03-16T03:41:50;7.20;;;4.60;;
2698;SDS011;1359;51.798;12.174;2023-03-16T03:44:19;6.60;;;3.90;;
2698;SDS011;1359;51.798;12.174;2023-03-16T03:46:45;6.63;;;4.40;;
2698;SDS011;1359;51.798;12.174;2023-03-16T03:49:10;8.57;;;4.20;;
2698;SDS011;1359;51.798;12.174;2023-03-16T03:51:35;4.77;;;4.37;;
2698;SDS011;1359;51.798;12.174;2023-03-16T03:54:05;8.87;;;5.20;;
2698;SDS011;1359;51.798;12.174;2023-03-16T03:56:50;5.70;;;4.50;;
2698;SDS011;1359;51.798;12.174;2023-03-16T03:59:16;5.03;;;4.50;;
2698;SDS011;1359;51.798;12.174;2023-03-16T04:01:58;9.73;;;5.53;;
2698;SDS011;1359;51.798;12.174;2023-03-16T04:04:28;11.90;;;5.10;;
2698;SDS011;1359;51.798;12.174;2023-03-16T04:06:53;5.27;;;4.67;;
2698;SDS011;1359;51.798;12.174;2023-03-16T04:09:21;9.53;;;6.37;;
2698;SDS011;1359;51.798;12.174;2023-03-16T04:11:46;6.37;;;4.90;;
2698;SDS011;1359;51.798;12.174;2023-03-16T04:14:11;7.70;;;6.33;;
2698;SDS011;1359;51.798;12.174;2023-03-16T04:16:38;6.07;;;5.47;;
2698;SDS011;1359;51.798;12.174;2023-03-16T04:19:03;9.90;;;5.97;;
2698;SDS011;1359;51.798;12.174;2023-03-16T04:21:29;6.23;;;5.37;;
2698;SDS011;1359;51.798;12.174;2023-03-16T04:23:54;7.77;;;5.50;;
2698;SDS011;1359;51.798;12.174;2023-03-16T04:26:25;5.87;;;4.63;;
2698;SDS011;1359;51.798;12.174;2023-03-16T04:28:51;6.70;;;4.70;;
2698;SDS011;1359;51.798;12.174;2023-03-16T04:31:18;7.60;;;5.30;;
2698;SDS011;1359;51.798;12.174;2023-03-16T04:33:45;9.33;;;5.20;;
2698;SDS011;1359;51.798;12.174;2023-03-16T04:36:11;11.87;;;5.43;;
2698;SDS011;1359;51.798;12.174;2023-03-16T04:38:37;6.07;;;5.27;;
2698;SDS011;1359;51.798;12.174;2023-03-16T04:41:02;8.63;;;4.43;;
2698;SDS011;1359;51.798;12.174;2023-03-16T04:43:32;10.00;;;4.40;;
2698;SDS011;1359;51.798;12.174;2023-03-16T04:46:02;8.17;;;5.27;;
2698;SDS011;1359;51.798;12.174;2023-03-16T04:48:29;4.90;;;4.40;;
2698;SDS011;1359;51.798;12.174;2023-03-16T04:50:56;5.93;;;4.63;;
2698;SDS011;1359;51.798;12.174;2023-03-16T04:53:23;5.17;;;4.67;;
2698;SDS011;1359;51.798;12.174;2023-03-16T04:55:55;7.07;;;5.20;;
2698;SDS011;1359;51.798;12.174;2023-03-16T04:58:20;6.87;;;4.40;;
2698;SDS011;1359;51.798;12.174;2023-03-16T05:00:50;4.97;;;4.27;;
2698;SDS011;1359;51.798;12.174;2023-03-16T05:03:20;6.17;;;4.70;;
2698;SDS011;1359;51.798;12.174;2023-03-16T05:05:47;14.23;;;7.47;;
2698;SDS011;1359;51.798;12.174;2023-03-16T05:08:13;12.57;;;10.00;;
2698;SDS011;1359;51.798;12.174;2023-03-16T05:10:41;11.43;;;10.20;;
2698;SDS011;1359;51.798;12.174;2023-03-16T05:13:09;17.93;;;10.43;;
2698;SDS011;1359;51.798;12.174;2023-03-16T05:15:35;13.63;;;9.37;;
2698;SDS011;1359;51.798;12.174;2023-03-16T05:18:10;8.00;;;7.20;;
2698;SDS011;1359;51.798;12.174;2023-03-16T05:20:36;7.53;;;6.73;;
2698;SDS011;1359;51.798;12.174;2023-03-16T05:23:02;5.43;;;4.30;;
2698;SDS011;1359;51.798;12.174;2023-03-16T05:25:31;6.90;;;4.97;;
2698;SDS011;1359;51.798;12.174;2023-03-16T05:28:01;5.47;;;5.00;;
2698;SDS011;1359;51.798;12.174;2023-03-16T05:30:32;7.07;;;5.80;;
2698;SDS011;1359;51.798;12.174;2023-03-16T05:33:01;6.80;;;4.57;;
2698;SDS011;1359;51.798;12.174;2023-03-16T05:35:27;7.60;;;5.13;;
2698;SDS011;1359;51.798;12.174;2023-03-16T05:37:57;6.23;;;5.70;;
2698;SDS011;1359;51.798;12.174;2023-03-16T05:40:22;8.23;;;5.30;;
2698;SDS011;1359;51.798;12.174;2023-03-16T05:42:57;6.30;;;5.40;;
2698;SDS011;1359;51.798;12.174;2023-03-16T05:45:25;7.13;;;5.90;;
2698;SDS011;1359;51.798;12.174;2023-03-16T05:48:11;10.50;;;6.00;;
2698;SDS011;1359;51.798;12.174;2023-03-16T05:50:42;13.03;;;6.37;;
2698;SDS011;1359;51.798;12.174;2023-03-16T05:53:07;9.00;;;5.73;;
2698;SDS011;1359;51.798;12.174;2023-03-16T05:55:35;7.07;;;5.33;;
2698;SDS011;1359;51.798;12.174;2023-03-16T05:58:02;8.20;;;5.23;;
2698;SDS011;1359;51.798;12.174;2023-03-16T06:00:28;6.93;;;5.00;;
2698;SDS011;1359;51.798;12.174;2023-03-16T06:03:04;11.77;;;5.20;;
2698;SDS011;1359;51.798;12.174;2023-03-16T06:05:33;8.93;;;5.57;;
2698;SDS011;1359;51.798;12.174;2023-03-16T06:07:58;6.40;;;5.30;;
2698;SDS011;1359;51.798;12.174;2023-03-16T06:10:25;6.43;;;5.37;;
2698;SDS011;1359;51.798;12.174;2023-03-16T06:12:51;7.53;;;5.90;;
2698;SDS011;1359;51.798;12.174;2023-03-16T06:15:18;8.47;;;5.77;;
2698;SDS011;1359;51.798;12.174;2023-03-16T06:17:44;7.23;;;5.77;;
2698;SDS011;1359;51.798;12.174;2023-03-16T06:20:10;8.17;;;6.00;;
2698;SDS011;1359;51.798;12.174;2023-03-16T06:22:38;5.97;;;5.40;;
2698;SDS011;1359;51.798;12.174;2023-03-16T06:25:04;6.87;;;5.23;;
2698;SDS011;1359;51.798;12.174;2023-03-16T06:27:30;12.93;;;5.57;;
2698;SDS011;1359;51.798;12.174;2023-03-16T06:30:07;6.63;;;5.40;;
2698;SDS011;1359;51.798;12.174;2023-03-16T06:32:33;6.47;;;5.63;;
2698;SDS011;1359;51.798;12.174;2023-03-16T06:35:00;12.13;;;5.53;;
2698;SDS011;1359;51.798;12.174;2023-03-16T06:37:28;8.13;;;5.20;;
2698;SDS011;1359;51.798;12.174;2023-03-16T06:39:53;9.40;;;4.93;;
2698;SDS011;1359;51.798;12.174;2023-03-16T06:42:19;6.80;;;4.63;;
2698;SDS011;1359;51.798;12.174;2023-03-16T06:44:44;6.73;;;4.67;;
2698;SDS011;1359;51.798;12.174;2023-03-16T06:47:11;5.73;;;4.60;;
2698;SDS011;1359;51.798;12.174;2023-03-16T06:49:36;6.20;;;4.77;;
2698;SDS011;1359;51.798;12.174;2023-03-16T06:52:07;7.03;;;5.10;;
2698;SDS011;1359;51.798;12.174;2023-03-16T06:54:34;4.93;;;4.43;;
2698;SDS011;1359;51.798;12.174;2023-03-16T06:57:02;9.97;;;5.20;;
2698;SDS011;1359;51.798;12.174;2023-03-16T06:59:27;11.30;;;5.93;;
2698;SDS011;1359;51.798;12.174;2023-03-16T07:01:53;7.40;;;6.63;;
2698;SDS011;1359;51.798;12.174;2023-03-16T07:04:18;11.97;;;7.70;;
2698;SDS011;1359;51.798;12.174;2023-03-16T07:06:44;9.37;;;6.63;;
2698;SDS011;1359;51.798;12.174;2023-03-16T07:09:10;10.47;;;5.80;;
2698;SDS011;1359;51.798;12.174;2023-03-16T07:11:37;9.80;;;8.23;;
2698;SDS011;1359;51.798;12.174;2023-03-16T07:14:02;9.00;;;5.67;;
2698;SDS011;1359;51.798;12.174;2023-03-16T07:16:29;13.00;;;7.70;;
2698;SDS011;1359;51.798;12.174;2023-03-16T07:18:58;13.30;;;10.50;;
2698;SDS011;1359;51.798;12.174;2023-03-16T07:21:23;9.77;;;7.00;;
2698;SDS011;1359;51.798;12.174;2023-03-16T07:23:49;6.80;;;5.70;;
2698;SDS011;1359;51.798;12.174;2023-03-16T07:26:20;7.93;;;5.97;;
2698;SDS011;1359;51.798;12.174;2023-03-16T07:28:51;6.97;;;5.67;;
2698;SDS011;1359;51.798;12.174;2023-03-16T07:31:17;7.90;;;5.50;;
2698;SDS011;1359;51.798;12.174;2023-03-16T07:33:43;5.50;;;4.27;;
2698;SDS011;1359;51.798;12.174;2023-03-16T07:36:13;14.70;;;5.87;;
2698;SDS011;1359;51.798;12.174;2023-03-16T07:38:44;8.27;;;5.80;;
2698;SDS011;1359;51.798;12.174;2023-03-16T07:41:10;9.10;;;5.30;;
2698;SDS011;1359;51.798;12.174;2023-03-16T07:43:36;7.63;;;5.80;;
2698;SDS011;1359;51.798;12.174;2023-03-16T07:46:02;7.17;;;4.63;;
2698;SDS011;1359;51.798;12.174;2023-03-16T07:48:28;5.37;;;4.80;;
2698;SDS011;1359;51.798;12.174;2023-03-16T07:50:58;6.10;;;4.67;;
2698;SDS011;1359;51.798;12.174;2023-03-16T07:53:23;6.93;;;4.07;;
2698;SDS011;1359;51.798;12.174;2023-03-16T07:55:55;8.50;;;5.40;;
2698;SDS011;1359;51.798;12.174;2023-03-16T07:58:21;9.33;;;4.73;;
2698;SDS011;1359;51.798;12.174;2023-03-16T08:00:48;5.37;;;4.77;;
2698;SDS011;1359;51.798;12.174;2023-03-16T08:03:13;5.23;;;4.67;;
2698;SDS011;1359;51.798;12.174;2023-03-16T08:05:38;5.60;;;5.00;;
2698;SDS011;1359;51.798;12.174;2023-03-16T08:08:10;3.57;;;3.23;;
2698;SDS011;1359;51.798;12.174;2023-03-16T08:10:36;6.40;;;4.90;;
2698;SDS011;1359;51.798;12.174;2023-03-16T08:13:08;4.83;;;4.33;;
2698;SDS011;1359;51.798;12.174;2023-03-16T08:15:36;6.53;;;4.10;;
2698;SDS011;1359;51.798;12.174;2023-03-16T08:18:10;4.27;;;3.50;;
2698;SDS011;1359;51.798;12.174;2023-03-16T08:20:36;3.97;;;3.60;;
2698;SDS011;1359;51.798;12.174;2023-03-16T08:23:02;6.33;;;3.23;;
2698;SDS011;1359;51.798;12.174;2023-03-16T08:25:34;4.47;;;3.83;;
2698;SDS011;1359;51.798;12.174;2023-03-16T08:28:18;8.87;;;3.73;;
2698;SDS011;1359;51.798;12.174;2023-03-16T08:30:49;6.27;;;3.80;;
2698;SDS011;1359;51.798;12.174;2023-03-16T08:33:41;5.03;;;3.30;;
2698;SDS011;1359;51.798;12.174;2023-03-16T08:36:09;3.97;;;3.03;;
2698;SDS011;1359;51.798;12.174;2023-03-16T08:38:36;11.63;;;4.10;;
2698;SDS011;1359;51.798;12.174;2023-03-16T08:41:06;6.20;;;3.33;;
2698;SDS011;1359;51.798;12.174;2023-03-16T08:43:32;9.80;;;3.60;;
2698;SDS011;1359;51.798;12.174;2023-03-16T08:45:58;5.67;;;3.13;;
2698;SDS011;1359;51.798;12.174;2023-03-16T08:48:28;4.27;;;2.70;;
2698;SDS011;1359;51.798;12.174;2023-03-16T08:50:54;4.40;;;3.97;;
2698;SDS011;1359;51.798;12.174;2023-03-16T08:53:19;6.37;;;3.73;;
2698;SDS011;1359;51.798;12.174;2023-03-16T08:55:45;4.03;;;3.00;;
2698;SDS011;1359;51.798;12.174;2023-03-16T08:58:10;4.50;;;2.63;;
2698;SDS011;1359;51.798;12.174;2023-03-16T09:00:36;3.93;;;2.70;;
2698;SDS011;1359;51.798;12.174;2023-03-16T09:03:02;6.03;;;3.50;;
2698;SDS011;1359;51.798;12.174;2023-03-16T09:05:27;6.00;;;3.20;;
2698;SDS011;1359;51.798;12.174;2023-03-16T09:07:53;11.17;;;3.90;;
2698;SDS011;1359;51.798;12.174;2023-03-16T09:10:19;4.20;;;2.90;;
2698;SDS011;1359;51.798;12.174;2023-03-16T09:12:49;4.27;;;3.20;;
2698;SDS011;1359;51.798;12.174;2023-03-16T09:15:16;3.90;;;2.40;;
2698;SDS011;1359;51.798;12.174;2023-03-16T09:17:42;5.67;;;3.47;;
2698;SDS011;1359;51.798;12.174;2023-03-16T09:20:09;8.30;;;3.73;;
2698;SDS011;1359;51.798;12.174;2023-03-16T09:22:35;6.47;;;3.33;;
2698;SDS011;1359;51.798;12.174;2023-03-16T09:25:05;4.60;;;3.00;;
2698;SDS011;1359;51.798;12.174;2023-03-16T09:27:31;5.60;;;3.10;;
2698;SDS011;1359;51.798;12.174;2023-03-16T09:29:57;8.10;;;4.50;;
2698;SDS011;1359;51.798;12.174;2023-03-16T09:32:23;6.13;;;3.00;;
2698;SDS011;1359;51.798;12.174;2023-03-16T09:34:48;6.33;;;4.20;;
2698;SDS011;1359;51.798;12.174;2023-03-16T09:37:14;5.30;;;2.47;;
2698;SDS011;1359;51.798;12.174;2023-03-16T09:39:40;6.60;;;2.60;;
2698;SDS011;1359;51.798;12.174;2023-03-16T09:44:47;6.40;;;3.20;;
2698;SDS011;1359;51.798;12.174;2023-03-16T09:47:14;3.10;;;1.90;;
2698;SDS011;1359;51.798;12.174;2023-03-16T09:49:42;5.40;;;3.77;;
2698;SDS011;1359;51.798;12.174;2023-03-16T09:57:30;2.57;;;2.20;;
2698;SDS011;1359;51.798;12.174;2023-03-16T09:59:57;6.03;;;2.20;;
2698;SDS011;1359;51.798;12.174;2023-03-16T10:05:07;4.13;;;2.80;;
2698;SDS011;1359;51.798;12.174;2023-03-16T10:07:36;5.73;;;2.47;;
2698;SDS011;1359;51.798;12.174;2023-03-16T10:12:38;4.53;;;3.40;;
2698;SDS011;1359;51.798;12.174;2023-03-16T10:17:36;5.07;;;3.43;;
2698;SDS011;1359;51.798;12.174;2023-03-16T10:20:04;6.13;;;2.50;;
2698;SDS011;1359;51.798;12.174;2023-03-16T10:22:34;4.70;;;3.37;;
2698;SDS011;1359;51.798;12.174;2023-03-16T10:27:44;5.47;;;2.73;;
2698;SDS011;1359;51.798;12.174;2023-03-16T10:30:24;4.43;;;2.43;;
2698;SDS011;1359;51.798;12.174;2023-03-16T10:32:51;8.63;;;2.37;;
2698;SDS011;1359;51.798;12.174;2023-03-16T10:37:45;2.93;;;1.90;;
2698;SDS011;1359;51.798;12.174;2023-03-16T10:40:11;4.30;;;2.43;;
2698;SDS011;1359;51.798;12.174;2023-03-16T10:42:37;6.03;;;2.50;;
2698;SDS011;1359;51.798;12.174;2023-03-16T10:45:03;5.60;;;2.70;;
2698;SDS011;1359;51.798;12.174;2023-03-16T10:47:31;4.53;;;3.07;;
2698;SDS011;1359;51.798;12.174;2023-03-16T10:49:57;6.70;;;3.13;;
2698;SDS011;1359;51.798;12.174;2023-03-16T10:52:32;2.70;;;2.20;;
2698;SDS011;1359;51.798;12.174;2023-03-16T10:57:40;3.20;;;2.43;;
2698;SDS011;1359;51.798;12.174;2023-03-16T11:02:38;3.43;;;2.67;;
2698;SDS011;1359;51.798;12.174;2023-03-16T11:07:37;6.17;;;2.47;;
2698;SDS011;1359;51.798;12.174;2023-03-16T11:10:11;4.87;;;2.70;;
2698;SDS011;1359;51.798;12.174;2023-03-16T11:12:38;8.07;;;3.67;;
2698;SDS011;1359;51.798;12.174;2023-03-16T11:15:04;3.57;;;2.57;;
2698;SDS011;1359;51.798;12.174;2023-03-16T11:17:41;5.53;;;3.03;;
2698;SDS011;1359;51.798;12.174;2023-03-16T11:20:10;4.10;;;2.53;;
2698;SDS011;1359;51.798;12.174;2023-03-16T11:22:39;6.33;;;4.50;;
2698;SDS011;1359;51.798;12.174;2023-03-16T11:27:34;3.57;;;2.70;;
2698;SDS011;1359;51.798;12.174;2023-03-16T11:32:32;5.00;;;2.70;;
2698;SDS011;1359;51.798;12.174;2023-03-16T11:35:00;4.90;;;2.10;;
2698;SDS011;1359;51.798;12.174;2023-03-16T11:42:26;4.57;;;2.17;;
2698;SDS011;1359;51.798;12.174;2023-03-16T11:45:12;5.47;;;3.17;;
2698;SDS011;1359;51.798;12.174;2023-03-16T11:47:46;3.03;;;2.30;;
2698;SDS011;1359;51.798;12.174;2023-03-16T11:50:16;6.40;;;3.27;;
2698;SDS011;1359;51.798;12.174;2023-03-16T11:52:59;3.40;;;2.37;;
2698;SDS011;1359;51.798;12.174;2023-03-16T11:55:30;3.10;;;2.50;;
2698;SDS011;1359;51.798;12.174;2023-03-16T12:00:51;5.57;;;1.83;;
2698;SDS011;1359;51.798;12.174;2023-03-16T12:03:37;8.53;;;3.03;;
2698;SDS011;1359;51.798;12.174;2023-03-16T12:06:08;14.33;;;2.30;;
2698;SDS011;1359;51.798;12.174;2023-03-16T12:09:01;4.70;;;2.13;;
2698;SDS011;1359;51.798;12.174;2023-03-16T12:11:29;5.03;;;2.50;;
2698;SDS011;1359;51.798;12.174;2023-03-16T12:13:58;4.63;;;2.33;;
2698;SDS011;1359;51.798;12.174;2023-03-16T12:16:27;5.13;;;2.40;;
2698;SDS011;1359;51.798;12.174;2023-03-16T12:18:56;4.03;;;2.93;;
2698;SDS011;1359;51.798;12.174;2023-03-16T12:21:26;2.67;;;2.17;;
2698;SDS011;1359;51.798;12.174;2023-03-16T12:23:56;2.70;;;2.50;;
2698;SDS011;1359;51.798;12.174;2023-03-16T12:26:24;4.23;;;1.93;;
2698;SDS011;1359;51.798;12.174;2023-03-16T12:28:53;10.10;;;2.93;;
2698;SDS011;1359;51.798;12.174;2023-03-16T12:31:23;2.60;;;2.40;;
2698;SDS011;1359;51.798;12.174;2023-03-16T12:38:55;4.60;;;1.87;;
2698;SDS011;1359;51.798;12.174;2023-03-16T12:41:38;6.47;;;2.63;;
2698;SDS011;1359;51.798;12.174;2023-03-16T12:44:09;3.33;;;3.03;;
2698;SDS011;1359;51.798;12.174;2023-03-16T12:49:14;3.10;;;2.27;;
2698;SDS011;1359;51.798;12.174;2023-03-16T12:51:41;6.83;;;2.77;;
2698;SDS011;1359;51.798;12.174;2023-03-16T12:54:20;3.70;;;2.00;;
2698;SDS011;1359;51.798;12.174;2023-03-16T12:56:46;3.30;;;2.00;;
2698;SDS011;1359;51.798;12.174;2023-03-16T12:59:16;3.20;;;2.10;;
2698;SDS011;1359;51.798;12.174;2023-03-16T13:01:42;2.97;;;2.07;;
2698;SDS011;1359;51.798;12.174;2023-03-16T13:04:15;4.07;;;2.17;;
2698;SDS011;1359;51.798;12.174;2023-03-16T13:06:42;4.10;;;1.70;;
2698;SDS011;1359;51.798;12.174;2023-03-16T13:09:08;7.40;;;1.50;;
2698;SDS011;1359;51.798;12.174;2023-03-16T13:11:42;2.57;;;1.67;;
2698;SDS011;1359;51.798;12.174;2023-03-16T13:14:12;3.47;;;1.97;;
2698;SDS011;1359;51.798;12.174;2023-03-16T13:16:39;7.60;;;3.63;;
2698;SDS011;1359;51.798;12.174;2023-03-16T13:21:59;16.70;;;5.87;;
2698;SDS011;1359;51.798;12.174;2023-03-16T13:24:26;3.00;;;2.60;;
2698;SDS011;1359;51.798;12.174;2023-03-16T13:26:56;5.87;;;1.93;;
2698;SDS011;1359;51.798;12.174;2023-03-16T13:29:23;4.43;;;2.43;;
2698;SDS011;1359;51.798;12.174;2023-03-16T13:31:49;3.10;;;1.87;;
2698;SDS011;1359;51.798;12.174;2023-03-16T13:34:26;1.70;;;1.47;;
2698;SDS011;1359;51.798;12.174;2023-03-16T13:36:54;2.83;;;1.60;;
2698;SDS011;1359;51.798;12.174;2023-03-16T13:39:23;5.10;;;2.53;;
2698;SDS011;1359;51.798;12.174;2023-03-16T13:41:58;4.80;;;2.10;;
2698;SDS011;1359;51.798;12.174;2023-03-16T13:44:24;4.77;;;2.30;;
2698;SDS011;1359;51.798;12.174;2023-03-16T13:46:50;2.33;;;1.60;;
2698;SDS011;1359;51.798;12.174;2023-03-16T13:49:16;2.83;;;2.00;;
2698;SDS011;1359;51.798;12.174;2023-03-16T13:51:42;3.90;;;2.37;;
2698;SDS011;1359;51.798;12.174;2023-03-16T13:54:15;4.40;;;1.83;;
2698;SDS011;1359;51.798;12.174;2023-03-16T13:56:43;7.10;;;3.30;;
2698;SDS011;1359;51.798;12.174;2023-03-16T13:59:08;6.27;;;3.60;;
2698;SDS011;1359;51.798;12.174;2023-03-16T14:01:34;4.57;;;2.40;;
2698;SDS011;1359;51.798;12.174;2023-03-16T14:04:01;3.43;;;2.23;;
2698;SDS011;1359;51.798;12.174;2023-03-16T14:06:33;2.10;;;1.77;;
2698;SDS011;1359;51.798;12.174;2023-03-16T14:09:06;3.70;;;2.20;;
2698;SDS011;1359;51.798;12.174;2023-03-16T14:11:38;6.53;;;2.67;;
2698;SDS011;1359;51.798;12.174;2023-03-16T14:14:12;4.57;;;2.40;;
2698;SDS011;1359;51.798;12.174;2023-03-16T14:16:37;3.60;;;1.90;;
2698;SDS011;1359;51.798;12.174;2023-03-16T14:19:04;5.27;;;2.83;;
2698;SDS011;1359;51.798;12.174;2023-03-16T14:21:32;4.63;;;2.03;;
2698;SDS011;1359;51.798;12.174;2023-03-16T14:24:01;1.80;;;1.57;;
2698;SDS011;1359;51.798;12.174;2023-03-16T14:26:38;2.53;;;1.50;;
2698;SDS011;1359;51.798;12.174;2023-03-16T14:29:04;4.47;;;1.83;;
2698;SDS011;1359;51.798;12.174;2023-03-16T14:31:35;4.50;;;2.37;;
2698;SDS011;1359;51.798;12.174;2023-03-16T14:34:03;6.33;;;2.30;;
2698;SDS011;1359;51.798;12.174;2023-03-16T14:36:36;3.13;;;2.63;;
2698;SDS011;1359;51.798;12.174;2023-03-16T14:39:14;4.83;;;1.93;;
2698;SDS011;1359;51.798;12.174;2023-03-16T14:41:43;2.13;;;1.30;;
2698;SDS011;1359;51.798;12.174;2023-03-16T14:44:14;3.27;;;1.90;;
2698;SDS011;1359;51.798;12.174;2023-03-16T14:46:41;2.23;;;2.03;;
2698;SDS011;1359;51.798;12.174;2023-03-16T14:49:28;3.63;;;1.90;;
2698;SDS011;1359;51.798;12.174;2023-03-16T14:51:53;2.10;;;1.67;;
2698;SDS011;1359;51.798;12.174;2023-03-16T14:54:20;2.53;;;2.30;;
2698;SDS011;1359;51.798;12.174;2023-03-16T14:56:50;3.40;;;2.30;;
2698;SDS011;1359;51.798;12.174;2023-03-16T14:59:16;2.63;;;2.23;;
2698;SDS011;1359;51.798;12.174;2023-03-16T15:01:41;3.43;;;2.30;;
2698;SDS011;1359;51.798;12.174;2023-03-16T15:04:08;3.67;;;3.03;;
2698;SDS011;1359;51.798;12.174;2023-03-16T15:06:35;3.10;;;2.50;;
2698;SDS011;1359;51.798;12.174;2023-03-16T15:09:00;4.57;;;3.20;;
2698;SDS011;1359;51.798;12.174;2023-03-16T15:11:27;2.90;;;2.37;;
2698;SDS011;1359;51.798;12.174;2023-03-16T15:13:52;2.40;;;2.13;;
2698;SDS011;1359;51.798;12.174;2023-03-16T15:16:27;2.67;;;2.30;;
2698;SDS011;1359;51.798;12.174;2023-03-16T15:18:53;2.60;;;2.40;;
2698;SDS011;1359;51.798;12.174;2023-03-16T15:21:19;5.60;;;3.30;;
2698;SDS011;1359;51.798;12.174;2023-03-16T15:23:45;5.73;;;5.23;;
2698;SDS011;1359;51.798;12.174;2023-03-16T15:26:12;3.80;;;3.50;;
2698;SDS011;1359;51.798;12.174;2023-03-16T15:28:38;6.50;;;2.03;;
2698;SDS011;1359;51.798;12.174;2023-03-16T15:31:03;2.77;;;2.40;;
2698;SDS011;1359;51.798;12.174;2023-03-16T15:33:29;5.30;;;2.30;;
2698;SDS011;1359;51.798;12.174;2023-03-16T15:35:55;3.97;;;2.73;;
2698;SDS011;1359;51.798;12.174;2023-03-16T15:38:22;3.73;;;2.23;;
2698;SDS011;1359;51.798;12.174;2023-03-16T15:40:48;2.50;;;2.20;;
2698;SDS011;1359;51.798;12.174;2023-03-16T15:43:16;6.33;;;2.97;;
2698;SDS011;1359;51.798;12.174;2023-03-16T15:45:42;7.07;;;2.97;;
2698;SDS011;1359;51.798;12.174;2023-03-16T15:48:08;6.73;;;3.40;;
2698;SDS011;1359;51.798;12.174;2023-03-16T15:50:34;4.90;;;3.10;;
2698;SDS011;1359;51.798;12.174;2023-03-16T15:53:02;3.37;;;2.97;;
2698;SDS011;1359;51.798;12.174;2023-03-16T15:55:39;6.73;;;4.10;;
2698;SDS011;1359;51.798;12.174;2023-03-16T15:58:09;4.43;;;2.63;;
2698;SDS011;1359;51.798;12.174;2023-03-16T16:00:40;4.93;;;3.10;;
2698;SDS011;1359;51.798;12.174;2023-03-16T16:03:06;3.07;;;2.30;;